sensor_id;sensor_type;location;lat;lon;timestamp;P1;durP1;ratioP1;P2;durP2;ratioP2
47715;SDS011;33476;50.984;3.538;2023-08-31T00:00:31;4.30;;;0.82;;
47715;SDS011;33476;50.984;3.538;2023-08-31T00:02:58;2.80;;;0.60;;
47715;SDS011;33476;50.984;3.538;2023-08-31T00:05:24;3.45;;;0.52;;
47715;SDS011;33476;50.984;3.538;2023-08-31T00:07:52;3.47;;;0.85;;
47715;SDS011;33476;50.984;3.538;2023-08-31T00:10:17;3.58;;;0.93;;
47715;SDS011;33476;50.984;3.538;2023-08-31T00:12:43;3.88;;;0.80;;
47715;SDS011;33476;50.984;3.538;2023-08-31T00:15:09;1.90;;;0.57;;
47715;SDS011;33476;50.984;3.538;2023-08-31T00:17:34;3.92;;;0.68;;
47715;SDS011;33476;50.984;3.538;2023-08-31T00:20:00;2.42;;;0.60;;
47715;SDS011;33476;50.984;3.538;2023-08-31T00:22:26;2.38;;;0.70;;
47715;SDS011;33476;50.984;3.538;2023-08-31T00:24:51;4.40;;;0.98;;
47715;SDS011;33476;50.984;3.538;2023-08-31T00:27:17;3.28;;;0.95;;
47715;SDS011;33476;50.984;3.538;2023-08-31T00:29:43;2.13;;;0.70;;
47715;SDS011;33476;50.984;3.538;2023-08-31T00:32:14;2.85;;;0.50;;
47715;SDS011;33476;50.984;3.538;2023-08-31T00:34:40;1.65;;;0.50;;
47715;SDS011;33476;50.984;3.538;2023-08-31T00:37:05;1.95;;;0.60;;
47715;SDS011;33476;50.984;3.538;2023-08-31T00:39:31;3.38;;;0.77;;
47715;SDS011;33476;50.984;3.538;2023-08-31T00:41:58;3.13;;;0.85;;
47715;SDS011;33476;50.984;3.538;2023-08-31T00:44:24;3.53;;;0.70;;
47715;SDS011;33476;50.984;3.538;2023-08-31T00:46:49;3.78;;;0.85;;
47715;SDS011;33476;50.984;3.538;2023-08-31T00:49:15;2.63;;;0.70;;
47715;SDS011;33476;50.984;3.538;2023-08-31T00:51:40;3.67;;;0.77;;
47715;SDS011;33476;50.984;3.538;2023-08-31T00:54:06;2.60;;;0.60;;
47715;SDS011;33476;50.984;3.538;2023-08-31T00:56:32;2.60;;;0.70;;
47715;SDS011;33476;50.984;3.538;2023-08-31T00:58:57;1.20;;;0.60;;
47715;SDS011;33476;50.984;3.538;2023-08-31T01:01:29;2.25;;;0.63;;
47715;SDS011;33476;50.984;3.538;2023-08-31T01:04:22;5.88;;;0.82;;
47715;SDS011;33476;50.984;3.538;2023-08-31T01:09:46;3.38;;;0.57;;
47715;SDS011;33476;50.984;3.538;2023-08-31T01:15:17;3.95;;;0.85;;
47715;SDS011;33476;50.984;3.538;2023-08-31T01:17:45;3.72;;;0.52;;
47715;SDS011;33476;50.984;3.538;2023-08-31T01:20:14;3.53;;;0.70;;
47715;SDS011;33476;50.984;3.538;2023-08-31T01:25:15;2.25;;;0.60;;
47715;SDS011;33476;50.984;3.538;2023-08-31T01:27:41;2.80;;;1.00;;
47715;SDS011;33476;50.984;3.538;2023-08-31T01:30:07;4.28;;;1.13;;
47715;SDS011;33476;50.984;3.538;2023-08-31T01:32:33;3.75;;;0.80;;
47715;SDS011;33476;50.984;3.538;2023-08-31T01:34:59;1.33;;;0.55;;
47715;SDS011;33476;50.984;3.538;2023-08-31T01:37:39;4.40;;;0.80;;
47715;SDS011;33476;50.984;3.538;2023-08-31T01:42:40;2.38;;;0.80;;
47715;SDS011;33476;50.984;3.538;2023-08-31T01:45:07;3.70;;;0.80;;
47715;SDS011;33476;50.984;3.538;2023-08-31T01:47:33;4.18;;;0.60;;
47715;SDS011;33476;50.984;3.538;2023-08-31T01:49:59;2.08;;;0.93;;
47715;SDS011;33476;50.984;3.538;2023-08-31T01:52:24;1.55;;;0.70;;
47715;SDS011;33476;50.984;3.538;2023-08-31T01:54:50;4.22;;;0.90;;
47715;SDS011;33476;50.984;3.538;2023-08-31T01:57:15;3.60;;;0.90;;
47715;SDS011;33476;50.984;3.538;2023-08-31T01:59:40;2.30;;;0.90;;
47715;SDS011;33476;50.984;3.538;2023-08-31T02:02:06;3.92;;;1.30;;
47715;SDS011;33476;50.984;3.538;2023-08-31T02:04:31;4.15;;;1.15;;
47715;SDS011;33476;50.984;3.538;2023-08-31T02:06:56;2.45;;;0.90;;
47715;SDS011;33476;50.984;3.538;2023-08-31T02:09:22;3.33;;;0.98;;
47715;SDS011;33476;50.984;3.538;2023-08-31T02:11:47;4.10;;;0.80;;
47715;SDS011;33476;50.984;3.538;2023-08-31T02:14:13;3.88;;;0.90;;
47715;SDS011;33476;50.984;3.538;2023-08-31T02:16:39;3.92;;;0.85;;
47715;SDS011;33476;50.984;3.538;2023-08-31T02:19:04;2.97;;;1.08;;
47715;SDS011;33476;50.984;3.538;2023-08-31T02:21:30;1.80;;;0.68;;
47715;SDS011;33476;50.984;3.538;2023-08-31T02:23:55;1.70;;;0.63;;
47715;SDS011;33476;50.984;3.538;2023-08-31T02:26:21;3.28;;;0.82;;
47715;SDS011;33476;50.984;3.538;2023-08-31T02:28:47;2.22;;;0.80;;
47715;SDS011;33476;50.984;3.538;2023-08-31T02:31:13;3.42;;;0.90;;
47715;SDS011;33476;50.984;3.538;2023-08-31T02:33:38;3.38;;;1.00;;
47715;SDS011;33476;50.984;3.538;2023-08-31T02:36:04;1.88;;;1.00;;
47715;SDS011;33476;50.984;3.538;2023-08-31T02:38:29;3.65;;;1.00;;
47715;SDS011;33476;50.984;3.538;2023-08-31T02:40:55;5.40;;;0.95;;
47715;SDS011;33476;50.984;3.538;2023-08-31T02:43:20;2.45;;;0.93;;
47715;SDS011;33476;50.984;3.538;2023-08-31T02:45:45;3.95;;;1.00;;
47715;SDS011;33476;50.984;3.538;2023-08-31T02:48:11;2.08;;;1.25;;
47715;SDS011;33476;50.984;3.538;2023-08-31T02:50:36;2.03;;;1.13;;
47715;SDS011;33476;50.984;3.538;2023-08-31T02:53:03;2.97;;;1.15;;
47715;SDS011;33476;50.984;3.538;2023-08-31T02:55:28;1.65;;;0.85;;
47715;SDS011;33476;50.984;3.538;2023-08-31T02:57:54;3.13;;;1.30;;
47715;SDS011;33476;50.984;3.538;2023-08-31T03:00:19;2.20;;;1.27;;
47715;SDS011;33476;50.984;3.538;2023-08-31T03:02:48;1.77;;;0.93;;
47715;SDS011;33476;50.984;3.538;2023-08-31T03:05:13;5.63;;;1.33;;
47715;SDS011;33476;50.984;3.538;2023-08-31T03:07:39;2.42;;;1.00;;
47715;SDS011;33476;50.984;3.538;2023-08-31T03:10:04;3.33;;;1.33;;
47715;SDS011;33476;50.984;3.538;2023-08-31T03:12:30;2.42;;;1.15;;
47715;SDS011;33476;50.984;3.538;2023-08-31T03:14:55;4.43;;;0.88;;
47715;SDS011;33476;50.984;3.538;2023-08-31T03:17:21;2.42;;;0.77;;
47715;SDS011;33476;50.984;3.538;2023-08-31T03:19:46;3.83;;;0.90;;
47715;SDS011;33476;50.984;3.538;2023-08-31T03:22:12;3.53;;;0.85;;
47715;SDS011;33476;50.984;3.538;2023-08-31T03:24:37;4.07;;;0.82;;
47715;SDS011;33476;50.984;3.538;2023-08-31T03:27:02;2.67;;;1.05;;
47715;SDS011;33476;50.984;3.538;2023-08-31T03:29:28;2.15;;;0.75;;
47715;SDS011;33476;50.984;3.538;2023-08-31T03:31:54;5.47;;;0.82;;
47715;SDS011;33476;50.984;3.538;2023-08-31T03:34:20;5.22;;;1.08;;
47715;SDS011;33476;50.984;3.538;2023-08-31T03:36:45;3.97;;;1.17;;
47715;SDS011;33476;50.984;3.538;2023-08-31T03:39:11;9.65;;;1.60;;
47715;SDS011;33476;50.984;3.538;2023-08-31T03:41:36;2.40;;;1.10;;
47715;SDS011;33476;50.984;3.538;2023-08-31T03:44:01;6.28;;;1.30;;
47715;SDS011;33476;50.984;3.538;2023-08-31T03:46:27;5.00;;;0.80;;
47715;SDS011;33476;50.984;3.538;2023-08-31T03:48:52;2.13;;;0.98;;
47715;SDS011;33476;50.984;3.538;2023-08-31T03:51:18;2.63;;;0.88;;
47715;SDS011;33476;50.984;3.538;2023-08-31T03:53:43;7.05;;;1.30;;
47715;SDS011;33476;50.984;3.538;2023-08-31T03:56:09;6.43;;;0.95;;
47715;SDS011;33476;50.984;3.538;2023-08-31T03:58:35;4.05;;;1.27;;
47715;SDS011;33476;50.984;3.538;2023-08-31T04:01:00;5.32;;;1.30;;
47715;SDS011;33476;50.984;3.538;2023-08-31T04:03:26;4.28;;;1.20;;
47715;SDS011;33476;50.984;3.538;2023-08-31T04:05:55;4.07;;;1.13;;
47715;SDS011;33476;50.984;3.538;2023-08-31T04:08:21;4.07;;;1.13;;
47715;SDS011;33476;50.984;3.538;2023-08-31T04:10:46;6.63;;;1.40;;
47715;SDS011;33476;50.984;3.538;2023-08-31T04:13:12;3.45;;;1.05;;
47715;SDS011;33476;50.984;3.538;2023-08-31T04:15:37;7.88;;;1.27;;
47715;SDS011;33476;50.984;3.538;2023-08-31T04:18:02;5.43;;;1.52;;
47715;SDS011;33476;50.984;3.538;2023-08-31T04:20:28;6.90;;;1.00;;
47715;SDS011;33476;50.984;3.538;2023-08-31T04:22:53;7.07;;;1.33;;
47715;SDS011;33476;50.984;3.538;2023-08-31T04:25:19;3.05;;;1.15;;
47715;SDS011;33476;50.984;3.538;2023-08-31T04:27:44;4.93;;;1.85;;
47715;SDS011;33476;50.984;3.538;2023-08-31T04:30:11;6.65;;;1.50;;
47715;SDS011;33476;50.984;3.538;2023-08-31T04:32:36;3.30;;;1.58;;
47715;SDS011;33476;50.984;3.538;2023-08-31T04:35:02;3.22;;;1.40;;
47715;SDS011;33476;50.984;3.538;2023-08-31T04:37:30;5.95;;;1.65;;
47715;SDS011;33476;50.984;3.538;2023-08-31T04:39:56;4.07;;;1.23;;
47715;SDS011;33476;50.984;3.538;2023-08-31T04:42:22;4.20;;;1.50;;
47715;SDS011;33476;50.984;3.538;2023-08-31T04:44:48;4.88;;;1.40;;
47715;SDS011;33476;50.984;3.538;2023-08-31T04:47:14;4.90;;;1.15;;
47715;SDS011;33476;50.984;3.538;2023-08-31T04:49:39;6.32;;;1.80;;
47715;SDS011;33476;50.984;3.538;2023-08-31T04:52:05;4.65;;;1.48;;
47715;SDS011;33476;50.984;3.538;2023-08-31T04:54:30;5.43;;;1.30;;
47715;SDS011;33476;50.984;3.538;2023-08-31T04:56:56;11.38;;;1.83;;
47715;SDS011;33476;50.984;3.538;2023-08-31T04:59:21;4.55;;;1.00;;
47715;SDS011;33476;50.984;3.538;2023-08-31T05:01:47;4.35;;;1.40;;
47715;SDS011;33476;50.984;3.538;2023-08-31T05:04:12;6.68;;;1.20;;
47715;SDS011;33476;50.984;3.538;2023-08-31T05:06:37;6.63;;;1.50;;
47715;SDS011;33476;50.984;3.538;2023-08-31T05:09:03;7.53;;;1.40;;
47715;SDS011;33476;50.984;3.538;2023-08-31T05:11:29;6.13;;;1.33;;
47715;SDS011;33476;50.984;3.538;2023-08-31T05:13:54;4.82;;;1.20;;
47715;SDS011;33476;50.984;3.538;2023-08-31T05:16:19;6.25;;;1.27;;
47715;SDS011;33476;50.984;3.538;2023-08-31T05:18:45;7.10;;;1.60;;
47715;SDS011;33476;50.984;3.538;2023-08-31T05:21:10;4.45;;;1.33;;
47715;SDS011;33476;50.984;3.538;2023-08-31T05:23:35;7.05;;;1.48;;
47715;SDS011;33476;50.984;3.538;2023-08-31T05:26:01;5.63;;;1.65;;
47715;SDS011;33476;50.984;3.538;2023-08-31T05:28:27;11.05;;;1.42;;
47715;SDS011;33476;50.984;3.538;2023-08-31T05:30:53;3.50;;;1.40;;
47715;SDS011;33476;50.984;3.538;2023-08-31T05:33:20;4.03;;;0.98;;
47715;SDS011;33476;50.984;3.538;2023-08-31T05:35:47;9.68;;;1.63;;
47715;SDS011;33476;50.984;3.538;2023-08-31T05:38:13;5.10;;;1.30;;
47715;SDS011;33476;50.984;3.538;2023-08-31T05:40:38;6.03;;;1.23;;
47715;SDS011;33476;50.984;3.538;2023-08-31T05:43:04;5.85;;;1.55;;
47715;SDS011;33476;50.984;3.538;2023-08-31T05:45:33;5.50;;;1.05;;
47715;SDS011;33476;50.984;3.538;2023-08-31T05:47:59;6.90;;;1.48;;
47715;SDS011;33476;50.984;3.538;2023-08-31T05:50:25;6.95;;;1.63;;
47715;SDS011;33476;50.984;3.538;2023-08-31T05:52:51;4.78;;;1.45;;
47715;SDS011;33476;50.984;3.538;2023-08-31T05:55:16;5.68;;;1.25;;
47715;SDS011;33476;50.984;3.538;2023-08-31T05:57:42;7.70;;;1.45;;
47715;SDS011;33476;50.984;3.538;2023-08-31T06:00:07;6.45;;;1.48;;
47715;SDS011;33476;50.984;3.538;2023-08-31T06:02:34;5.55;;;1.60;;
47715;SDS011;33476;50.984;3.538;2023-08-31T06:05:00;7.55;;;1.48;;
47715;SDS011;33476;50.984;3.538;2023-08-31T06:07:26;9.43;;;1.83;;
47715;SDS011;33476;50.984;3.538;2023-08-31T06:09:54;4.63;;;1.63;;
47715;SDS011;33476;50.984;3.538;2023-08-31T06:12:19;5.60;;;1.80;;
47715;SDS011;33476;50.984;3.538;2023-08-31T06:14:45;7.32;;;1.42;;
47715;SDS011;33476;50.984;3.538;2023-08-31T06:17:10;12.18;;;2.15;;
47715;SDS011;33476;50.984;3.538;2023-08-31T06:19:38;3.28;;;1.27;;
47715;SDS011;33476;50.984;3.538;2023-08-31T06:22:03;4.35;;;1.70;;
47715;SDS011;33476;50.984;3.538;2023-08-31T06:24:29;6.88;;;1.48;;
47715;SDS011;33476;50.984;3.538;2023-08-31T06:26:54;6.75;;;1.63;;
47715;SDS011;33476;50.984;3.538;2023-08-31T06:29:21;9.07;;;1.80;;
47715;SDS011;33476;50.984;3.538;2023-08-31T06:31:47;6.00;;;1.73;;
47715;SDS011;33476;50.984;3.538;2023-08-31T06:34:12;9.93;;;1.60;;
47715;SDS011;33476;50.984;3.538;2023-08-31T06:36:37;7.40;;;1.55;;
47715;SDS011;33476;50.984;3.538;2023-08-31T06:39:03;4.72;;;1.45;;
47715;SDS011;33476;50.984;3.538;2023-08-31T06:41:29;8.32;;;1.48;;
47715;SDS011;33476;50.984;3.538;2023-08-31T06:43:55;5.90;;;1.17;;
47715;SDS011;33476;50.984;3.538;2023-08-31T06:46:21;8.43;;;1.52;;
47715;SDS011;33476;50.984;3.538;2023-08-31T06:48:46;4.82;;;1.20;;
47715;SDS011;33476;50.984;3.538;2023-08-31T06:51:11;3.33;;;1.30;;
47715;SDS011;33476;50.984;3.538;2023-08-31T06:53:38;6.25;;;1.48;;
47715;SDS011;33476;50.984;3.538;2023-08-31T06:56:03;5.65;;;1.30;;
47715;SDS011;33476;50.984;3.538;2023-08-31T06:58:29;5.78;;;1.75;;
47715;SDS011;33476;50.984;3.538;2023-08-31T07:00:55;6.88;;;1.58;;
47715;SDS011;33476;50.984;3.538;2023-08-31T07:03:20;7.18;;;1.88;;
47715;SDS011;33476;50.984;3.538;2023-08-31T07:05:45;4.00;;;1.38;;
47715;SDS011;33476;50.984;3.538;2023-08-31T07:08:11;7.97;;;2.03;;
47715;SDS011;33476;50.984;3.538;2023-08-31T07:10:36;6.35;;;1.77;;
47715;SDS011;33476;50.984;3.538;2023-08-31T07:13:02;7.88;;;1.90;;
47715;SDS011;33476;50.984;3.538;2023-08-31T07:15:29;8.30;;;1.50;;
47715;SDS011;33476;50.984;3.538;2023-08-31T07:17:54;6.05;;;1.55;;
47715;SDS011;33476;50.984;3.538;2023-08-31T07:20:19;4.88;;;1.58;;
47715;SDS011;33476;50.984;3.538;2023-08-31T07:22:45;8.30;;;1.65;;
47715;SDS011;33476;50.984;3.538;2023-08-31T07:25:10;4.22;;;1.92;;
47715;SDS011;33476;50.984;3.538;2023-08-31T07:27:36;4.93;;;1.55;;
47715;SDS011;33476;50.984;3.538;2023-08-31T07:30:02;9.00;;;2.10;;
47715;SDS011;33476;50.984;3.538;2023-08-31T07:32:29;10.73;;;1.88;;
47715;SDS011;33476;50.984;3.538;2023-08-31T07:34:54;6.30;;;1.40;;
47715;SDS011;33476;50.984;3.538;2023-08-31T07:37:20;8.63;;;1.55;;
47715;SDS011;33476;50.984;3.538;2023-08-31T07:39:45;6.03;;;1.92;;
47715;SDS011;33476;50.984;3.538;2023-08-31T07:42:11;7.30;;;1.65;;
47715;SDS011;33476;50.984;3.538;2023-08-31T07:44:36;6.55;;;2.13;;
47715;SDS011;33476;50.984;3.538;2023-08-31T07:47:01;3.13;;;1.50;;
47715;SDS011;33476;50.984;3.538;2023-08-31T07:49:27;9.48;;;2.33;;
47715;SDS011;33476;50.984;3.538;2023-08-31T07:51:53;6.13;;;1.88;;
47715;SDS011;33476;50.984;3.538;2023-08-31T07:54:19;11.02;;;2.17;;
47715;SDS011;33476;50.984;3.538;2023-08-31T07:56:47;5.63;;;1.75;;
47715;SDS011;33476;50.984;3.538;2023-08-31T07:59:12;8.48;;;1.80;;
47715;SDS011;33476;50.984;3.538;2023-08-31T08:01:38;6.75;;;1.85;;
47715;SDS011;33476;50.984;3.538;2023-08-31T08:04:03;7.10;;;1.67;;
47715;SDS011;33476;50.984;3.538;2023-08-31T08:06:29;6.28;;;1.98;;
47715;SDS011;33476;50.984;3.538;2023-08-31T08:08:55;4.03;;;1.67;;
47715;SDS011;33476;50.984;3.538;2023-08-31T08:11:21;12.45;;;1.85;;
47715;SDS011;33476;50.984;3.538;2023-08-31T08:13:47;6.38;;;1.65;;
47715;SDS011;33476;50.984;3.538;2023-08-31T08:16:12;5.03;;;1.92;;
47715;SDS011;33476;50.984;3.538;2023-08-31T08:18:39;6.82;;;2.00;;
47715;SDS011;33476;50.984;3.538;2023-08-31T08:21:05;5.07;;;1.92;;
47715;SDS011;33476;50.984;3.538;2023-08-31T08:23:31;8.75;;;2.33;;
47715;SDS011;33476;50.984;3.538;2023-08-31T08:25:56;5.57;;;1.83;;
47715;SDS011;33476;50.984;3.538;2023-08-31T08:28:24;7.18;;;2.38;;
47715;SDS011;33476;50.984;3.538;2023-08-31T08:30:50;9.20;;;2.72;;
47715;SDS011;33476;50.984;3.538;2023-08-31T08:33:15;4.68;;;1.65;;
47715;SDS011;33476;50.984;3.538;2023-08-31T08:35:41;5.57;;;2.30;;
47715;SDS011;33476;50.984;3.538;2023-08-31T08:38:06;7.40;;;2.22;;
47715;SDS011;33476;50.984;3.538;2023-08-31T08:40:32;9.82;;;2.05;;
47715;SDS011;33476;50.984;3.538;2023-08-31T08:42:59;5.80;;;2.10;;
47715;SDS011;33476;50.984;3.538;2023-08-31T08:45:26;8.13;;;2.22;;
47715;SDS011;33476;50.984;3.538;2023-08-31T08:48:01;8.25;;;2.13;;
47715;SDS011;33476;50.984;3.538;2023-08-31T08:50:29;6.40;;;2.40;;
47715;SDS011;33476;50.984;3.538;2023-08-31T08:52:57;9.70;;;2.28;;
47715;SDS011;33476;50.984;3.538;2023-08-31T08:55:22;6.90;;;1.90;;
47715;SDS011;33476;50.984;3.538;2023-08-31T08:57:48;4.45;;;1.80;;
47715;SDS011;33476;50.984;3.538;2023-08-31T09:00:14;7.22;;;2.55;;
47715;SDS011;33476;50.984;3.538;2023-08-31T09:02:40;10.10;;;2.58;;
47715;SDS011;33476;50.984;3.538;2023-08-31T09:05:06;6.18;;;2.13;;
47715;SDS011;33476;50.984;3.538;2023-08-31T09:07:34;7.40;;;2.17;;
47715;SDS011;33476;50.984;3.538;2023-08-31T09:10:01;5.30;;;1.87;;
47715;SDS011;33476;50.984;3.538;2023-08-31T09:12:28;7.38;;;2.08;;
47715;SDS011;33476;50.984;3.538;2023-08-31T09:15:01;7.22;;;1.90;;
47715;SDS011;33476;50.984;3.538;2023-08-31T09:17:37;7.70;;;2.10;;
47715;SDS011;33476;50.984;3.538;2023-08-31T09:20:04;6.57;;;1.42;;
47715;SDS011;33476;50.984;3.538;2023-08-31T09:22:31;7.43;;;1.77;;
47715;SDS011;33476;50.984;3.538;2023-08-31T09:24:58;8.25;;;2.25;;
47715;SDS011;33476;50.984;3.538;2023-08-31T09:27:23;7.95;;;1.88;;
47715;SDS011;33476;50.984;3.538;2023-08-31T09:29:49;9.63;;;2.35;;
47715;SDS011;33476;50.984;3.538;2023-08-31T09:32:16;7.55;;;1.58;;
47715;SDS011;33476;50.984;3.538;2023-08-31T09:34:42;9.80;;;2.03;;
47715;SDS011;33476;50.984;3.538;2023-08-31T09:37:08;7.13;;;1.58;;
47715;SDS011;33476;50.984;3.538;2023-08-31T09:39:37;5.03;;;1.75;;
47715;SDS011;33476;50.984;3.538;2023-08-31T09:42:04;3.95;;;1.05;;
47715;SDS011;33476;50.984;3.538;2023-08-31T09:44:30;4.20;;;0.93;;
47715;SDS011;33476;50.984;3.538;2023-08-31T09:46:55;3.30;;;0.70;;
47715;SDS011;33476;50.984;3.538;2023-08-31T09:49:21;4.57;;;0.93;;
47715;SDS011;33476;50.984;3.538;2023-08-31T09:51:48;4.40;;;1.10;;
47715;SDS011;33476;50.984;3.538;2023-08-31T09:54:15;2.80;;;0.80;;
47715;SDS011;33476;50.984;3.538;2023-08-31T09:56:42;6.38;;;0.88;;
47715;SDS011;33476;50.984;3.538;2023-08-31T09:59:09;2.65;;;1.20;;
47715;SDS011;33476;50.984;3.538;2023-08-31T10:01:35;3.78;;;0.70;;
47715;SDS011;33476;50.984;3.538;2023-08-31T10:04:01;7.93;;;1.55;;
47715;SDS011;33476;50.984;3.538;2023-08-31T10:06:28;5.47;;;1.27;;
47715;SDS011;33476;50.984;3.538;2023-08-31T10:08:54;7.90;;;1.13;;
47715;SDS011;33476;50.984;3.538;2023-08-31T10:11:20;7.60;;;1.80;;
47715;SDS011;33476;50.984;3.538;2023-08-31T10:13:47;7.50;;;1.73;;
47715;SDS011;33476;50.984;3.538;2023-08-31T10:16:14;5.88;;;1.05;;
47715;SDS011;33476;50.984;3.538;2023-08-31T10:18:40;5.40;;;1.48;;
47715;SDS011;33476;50.984;3.538;2023-08-31T10:21:06;6.50;;;1.10;;
47715;SDS011;33476;50.984;3.538;2023-08-31T10:23:31;5.20;;;0.90;;
47715;SDS011;33476;50.984;3.538;2023-08-31T10:28:23;3.38;;;0.60;;
47715;SDS011;33476;50.984;3.538;2023-08-31T10:31:00;3.92;;;0.75;;
47715;SDS011;33476;50.984;3.538;2023-08-31T10:33:40;3.80;;;1.08;;
47715;SDS011;33476;50.984;3.538;2023-08-31T10:36:09;4.55;;;1.00;;
47715;SDS011;33476;50.984;3.538;2023-08-31T10:38:37;4.47;;;0.50;;
47715;SDS011;33476;50.984;3.538;2023-08-31T10:46:15;2.17;;;0.88;;
47715;SDS011;33476;50.984;3.538;2023-08-31T10:49:31;3.75;;;0.90;;
47715;SDS011;33476;50.984;3.538;2023-08-31T10:51:45;2.95;;;0.73;;
47715;SDS011;33476;50.984;3.538;2023-08-31T10:54:26;5.22;;;0.50;;
47715;SDS011;33476;50.984;3.538;2023-08-31T10:59:26;4.22;;;0.60;;
47715;SDS011;33476;50.984;3.538;2023-08-31T11:02:06;2.20;;;0.60;;
47715;SDS011;33476;50.984;3.538;2023-08-31T11:04:51;6.68;;;0.85;;
47715;SDS011;33476;50.984;3.538;2023-08-31T11:07:25;4.65;;;0.60;;
47715;SDS011;33476;50.984;3.538;2023-08-31T11:09:51;2.42;;;0.40;;
47715;SDS011;33476;50.984;3.538;2023-08-31T11:12:17;2.90;;;0.40;;
47715;SDS011;33476;50.984;3.538;2023-08-31T11:14:47;2.65;;;0.75;;
47715;SDS011;33476;50.984;3.538;2023-08-31T11:17:13;3.63;;;0.60;;
47715;SDS011;33476;50.984;3.538;2023-08-31T11:19:38;1.90;;;0.40;;
47715;SDS011;33476;50.984;3.538;2023-08-31T11:22:04;3.53;;;0.70;;
47715;SDS011;33476;50.984;3.538;2023-08-31T11:24:32;2.35;;;0.57;;
47715;SDS011;33476;50.984;3.538;2023-08-31T11:26:58;5.15;;;0.80;;
47715;SDS011;33476;50.984;3.538;2023-08-31T11:29:23;8.10;;;0.88;;
47715;SDS011;33476;50.984;3.538;2023-08-31T11:31:49;3.83;;;0.73;;
47715;SDS011;33476;50.984;3.538;2023-08-31T11:34:15;3.55;;;0.40;;
47715;SDS011;33476;50.984;3.538;2023-08-31T11:36:42;4.10;;;0.50;;
47715;SDS011;33476;50.984;3.538;2023-08-31T11:39:09;2.65;;;0.50;;
47715;SDS011;33476;50.984;3.538;2023-08-31T11:41:35;5.20;;;0.75;;
47715;SDS011;33476;50.984;3.538;2023-08-31T11:44:03;4.40;;;0.47;;
47715;SDS011;33476;50.984;3.538;2023-08-31T11:46:29;3.28;;;0.45;;
47715;SDS011;33476;50.984;3.538;2023-08-31T11:48:56;5.45;;;0.50;;
47715;SDS011;33476;50.984;3.538;2023-08-31T11:51:24;6.65;;;0.63;;
47715;SDS011;33476;50.984;3.538;2023-08-31T11:53:49;1.92;;;0.55;;
47715;SDS011;33476;50.984;3.538;2023-08-31T11:56:15;4.47;;;0.45;;
47715;SDS011;33476;50.984;3.538;2023-08-31T11:58:43;4.38;;;0.63;;
47715;SDS011;33476;50.984;3.538;2023-08-31T12:01:11;6.03;;;0.68;;
47715;SDS011;33476;50.984;3.538;2023-08-31T12:03:43;2.58;;;0.32;;
47715;SDS011;33476;50.984;3.538;2023-08-31T12:06:14;5.82;;;0.85;;
47715;SDS011;33476;50.984;3.538;2023-08-31T12:08:41;3.08;;;0.47;;
47715;SDS011;33476;50.984;3.538;2023-08-31T12:11:06;3.33;;;0.40;;
47715;SDS011;33476;50.984;3.538;2023-08-31T12:13:32;10.45;;;0.43;;
47715;SDS011;33476;50.984;3.538;2023-08-31T12:15:57;5.32;;;0.40;;
47715;SDS011;33476;50.984;3.538;2023-08-31T12:18:23;2.17;;;0.40;;
47715;SDS011;33476;50.984;3.538;2023-08-31T12:20:51;3.83;;;0.70;;
47715;SDS011;33476;50.984;3.538;2023-08-31T12:23:18;4.28;;;0.95;;
47715;SDS011;33476;50.984;3.538;2023-08-31T12:25:53;3.08;;;0.47;;
47715;SDS011;33476;50.984;3.538;2023-08-31T12:28:19;4.32;;;0.30;;
47715;SDS011;33476;50.984;3.538;2023-08-31T12:30:49;6.22;;;0.50;;
47715;SDS011;33476;50.984;3.538;2023-08-31T12:33:17;5.00;;;0.52;;
47715;SDS011;33476;50.984;3.538;2023-08-31T12:35:43;3.42;;;0.30;;
47715;SDS011;33476;50.984;3.538;2023-08-31T12:38:09;2.05;;;0.50;;
47715;SDS011;33476;50.984;3.538;2023-08-31T12:40:34;2.15;;;0.40;;
47715;SDS011;33476;50.984;3.538;2023-08-31T12:42:59;3.58;;;0.50;;
47715;SDS011;33476;50.984;3.538;2023-08-31T12:45:25;1.75;;;0.30;;
47715;SDS011;33476;50.984;3.538;2023-08-31T12:47:50;3.33;;;0.38;;
47715;SDS011;33476;50.984;3.538;2023-08-31T12:50:16;1.33;;;0.30;;
47715;SDS011;33476;50.984;3.538;2023-08-31T12:52:42;3.97;;;0.30;;
47715;SDS011;33476;50.984;3.538;2023-08-31T12:55:11;5.32;;;0.30;;
47715;SDS011;33476;50.984;3.538;2023-08-31T12:57:39;2.15;;;0.30;;
47715;SDS011;33476;50.984;3.538;2023-08-31T13:00:06;4.60;;;0.32;;
47715;SDS011;33476;50.984;3.538;2023-08-31T13:02:39;4.32;;;0.40;;
47715;SDS011;33476;50.984;3.538;2023-08-31T13:05:06;2.88;;;0.20;;
47715;SDS011;33476;50.984;3.538;2023-08-31T13:07:33;2.95;;;0.40;;
47715;SDS011;33476;50.984;3.538;2023-08-31T13:10:00;4.72;;;0.60;;
47715;SDS011;33476;50.984;3.538;2023-08-31T13:12:28;2.15;;;0.35;;
47715;SDS011;33476;50.984;3.538;2023-08-31T13:14:54;3.90;;;0.40;;
47715;SDS011;33476;50.984;3.538;2023-08-31T13:17:20;4.22;;;0.47;;
47715;SDS011;33476;50.984;3.538;2023-08-31T13:19:45;4.47;;;0.47;;
47715;SDS011;33476;50.984;3.538;2023-08-31T13:22:10;2.60;;;0.30;;
47715;SDS011;33476;50.984;3.538;2023-08-31T13:24:40;2.60;;;0.30;;
47715;SDS011;33476;50.984;3.538;2023-08-31T13:27:05;2.28;;;0.40;;
47715;SDS011;33476;50.984;3.538;2023-08-31T13:29:31;3.40;;;0.57;;
47715;SDS011;33476;50.984;3.538;2023-08-31T13:31:57;3.38;;;0.40;;
47715;SDS011;33476;50.984;3.538;2023-08-31T13:34:22;2.50;;;0.40;;
47715;SDS011;33476;50.984;3.538;2023-08-31T13:36:48;3.90;;;0.50;;
47715;SDS011;33476;50.984;3.538;2023-08-31T13:39:13;3.22;;;0.40;;
47715;SDS011;33476;50.984;3.538;2023-08-31T13:41:38;6.15;;;0.55;;
47715;SDS011;33476;50.984;3.538;2023-08-31T13:44:04;5.88;;;0.77;;
47715;SDS011;33476;50.984;3.538;2023-08-31T13:46:29;4.88;;;0.68;;
47715;SDS011;33476;50.984;3.538;2023-08-31T13:48:56;4.30;;;0.70;;
47715;SDS011;33476;50.984;3.538;2023-08-31T13:51:21;16.20;;;0.90;;
47715;SDS011;33476;50.984;3.538;2023-08-31T13:53:47;3.40;;;0.65;;
47715;SDS011;33476;50.984;3.538;2023-08-31T13:56:12;5.18;;;0.68;;
47715;SDS011;33476;50.984;3.538;2023-08-31T13:58:38;7.15;;;0.70;;
47715;SDS011;33476;50.984;3.538;2023-08-31T14:01:04;7.13;;;1.02;;
47715;SDS011;33476;50.984;3.538;2023-08-31T14:03:30;4.88;;;1.10;;
47715;SDS011;33476;50.984;3.538;2023-08-31T14:05:55;6.60;;;1.00;;
47715;SDS011;33476;50.984;3.538;2023-08-31T14:08:21;3.90;;;0.80;;
47715;SDS011;33476;50.984;3.538;2023-08-31T14:10:46;5.93;;;1.00;;
47715;SDS011;33476;50.984;3.538;2023-08-31T14:13:11;4.13;;;0.88;;
47715;SDS011;33476;50.984;3.538;2023-08-31T14:15:37;5.78;;;0.95;;
47715;SDS011;33476;50.984;3.538;2023-08-31T14:18:09;3.33;;;0.60;;
47715;SDS011;33476;50.984;3.538;2023-08-31T14:20:34;7.63;;;0.85;;
47715;SDS011;33476;50.984;3.538;2023-08-31T14:22:59;4.57;;;0.75;;
47715;SDS011;33476;50.984;3.538;2023-08-31T14:25:25;5.47;;;0.60;;
47715;SDS011;33476;50.984;3.538;2023-08-31T14:27:50;4.32;;;0.80;;
47715;SDS011;33476;50.984;3.538;2023-08-31T14:30:16;6.38;;;0.95;;
47715;SDS011;33476;50.984;3.538;2023-08-31T14:32:41;6.68;;;1.45;;
47715;SDS011;33476;50.984;3.538;2023-08-31T14:35:07;9.20;;;0.90;;
47715;SDS011;33476;50.984;3.538;2023-08-31T14:37:32;5.10;;;0.95;;
47715;SDS011;33476;50.984;3.538;2023-08-31T14:39:57;9.98;;;1.08;;
47715;SDS011;33476;50.984;3.538;2023-08-31T14:42:23;6.70;;;0.75;;
47715;SDS011;33476;50.984;3.538;2023-08-31T14:44:48;4.50;;;0.85;;
47715;SDS011;33476;50.984;3.538;2023-08-31T14:47:14;6.00;;;1.02;;
47715;SDS011;33476;50.984;3.538;2023-08-31T14:49:40;6.35;;;1.02;;
47715;SDS011;33476;50.984;3.538;2023-08-31T14:52:05;7.03;;;0.93;;
47715;SDS011;33476;50.984;3.538;2023-08-31T14:54:31;11.23;;;1.20;;
47715;SDS011;33476;50.984;3.538;2023-08-31T14:56:58;7.43;;;0.93;;
47715;SDS011;33476;50.984;3.538;2023-08-31T14:59:23;4.03;;;0.95;;
47715;SDS011;33476;50.984;3.538;2023-08-31T15:01:49;5.72;;;1.10;;
47715;SDS011;33476;50.984;3.538;2023-08-31T15:04:15;6.38;;;0.82;;